Westchester, New York
Current Conditions -  °F | °C
As of 10:51 AM on Thursday 30 Oct 2014 (Local Time) from KLGA Reporting Station
Few Clouds Few Clouds  
Wind Chill: 54°   Ceiling: Unl
Heat Index: 54°   Visibility: 10mi
Dew Point: 40°   Wind: 12mph
Humidity: 59%   Direction: 330°NNW
Pressure: 29.99"   Gusts: NA
Location:  40.8469°N, 73.8398°W
Report Text: KLGA 301451Z 33010KT 10SM FEW070 12/04 A2999 RMK AO2 SLP156 T01220044 50004
Loading
Personal Weather Stations






























Interactive Weather Map
Tropical Storm Tracking
New forecast layout! Learn more

10-Day Weather Forecast

Advertisements
Track Severe Weather on mobile